Temp: 17.2°C   Baro: 1010.2mb
  Wind: 4.0mph   Dir: WNW (300°)
  Rain: 0.8mm (0.0mm/hr)
  Solar: 174W/m2  Hum: 92%
 
Bath Spa Weather Station Historical Data
Daily Summary for November 6, 2019 Units:  Metric    English   Both
Daily Weekly Monthly Yearly Custom
  High: Low: Average:
Temperature: 10.1 °C 3.4 °C 7.5 °C
Dew Point: 8 °C 2.2 °C 5.8 °C
Humidity: 94% 79% 89%
Wind Speed: 10.1km/h 0km/h 2.1km/h
Wind Gust: 19.3km/h - -
Wind- - SSW
Pressure: 1007.3 hPa 992.8 hPa -
Precipitation: 10.67 mm    
Historical Graphs
 
 
Tabular Data for November 6, 2019
Time Temperature Dew Point Pressure Wind Wind Speed Wind Gust Humidity Rainfall Rate (Hourly) solar
00:04 8.8 °C 6.8 °C 1006.7 hPa NNE 7.7 km/h 12.9 km/h 87% 0 mm 0 W/m2
00:09 8.8 °C 6.8 °C 1006.7 hPa NNE 6.6 km/h 14.5 km/h 87% 0 mm 0 W/m2
00:14 8.8 °C 6.8 °C 1006.7 hPa North 4.8 km/h 14.5 km/h 87% 0 mm 0 W/m2
00:19 8.8 °C 6.8 °C 1006.7 hPa North 6.1 km/h 14.5 km/h 87% 0 mm 0 W/m2
00:24 8.7 °C 6.7 °C 1007 hPa NNW 6.3 km/h 14.5 km/h 87% 0 mm 0 W/m2
00:29 8.7 °C 6.7 °C 1007 hPa NNW 6.6 km/h 14.5 km/h 87% 0 mm 0 W/m2
00:34 8.6 °C 6.6 °C 1006.7 hPa North 7.1 km/h 14.5 km/h 87% 0 mm 0 W/m2
00:39 8.5 °C 6.5 °C 1007 hPa NNW 7.9 km/h 17.7 km/h 87% 0 mm 0 W/m2
00:44 8.3 °C 6.2 °C 1007 hPa North 8.5 km/h 14.5 km/h 86.1% 0 mm 0 W/m2
00:49 8.2 °C 6 °C 1007 hPa North 5.8 km/h 14.5 km/h 86% 0 mm 0 W/m2
00:54 8.1 °C 5.8 °C 1007 hPa North 8 km/h 14.5 km/h 86% 0 mm 0 W/m2
00:59 7.9 °C 5.7 °C 1007 hPa North 7.1 km/h 14.5 km/h 86% 0 mm 0 W/m2
01:04 7.8 °C 5.7 °C 1007 hPa North 4.2 km/h 14.5 km/h 86% 0 mm 0 W/m2
01:09 7.7 °C 5.5 °C 1007 hPa North 5.1 km/h 12.9 km/h 86% 0 mm 0 W/m2
01:14 7.6 °C 5.4 °C 1007 hPa NNW 3.2 km/h 11.3 km/h 86% 0 mm 0 W/m2
01:19 7.4 °C 5.3 °C 1007 hPa North 6.4 km/h 12.9 km/h 86% 0 mm 0 W/m2
01:24 7.4 °C 5.2 °C 1007 hPa North 6 km/h 12.9 km/h 86% 0 mm 0 W/m2
01:29 7.3 °C 5.3 °C 1007 hPa North 3.9 km/h 11.3 km/h 86.9% 0 mm 0 W/m2
01:34 7.3 °C 5.3 °C 1007 hPa NNW 2.1 km/h 9.7 km/h 87% 0 mm 0 W/m2
01:39 7.2 °C 5.1 °C 1007 hPa NNW 0.3 km/h 3.2 km/h 86.6% 0 mm 0 W/m2
01:44 7.1 °C 5.1 °C 1007 hPa NNW 1 km/h 4.8 km/h 87% 0 mm 0 W/m2
01:49 7.1 °C 5.1 °C 1007 hPa NNW 0.6 km/h 4.8 km/h 87% 0 mm 0 W/m2
01:54 7 °C 5 °C 1007 hPa NNW 0.5 km/h 1.6 km/h 87% 0 mm 0 W/m2
01:59 6.9 °C 4.9 °C 1007 hPa NNW 0.5 km/h 3.2 km/h 87% 0 mm 0 W/m2
02:04 6.8 °C 4.8 °C 1007 hPa Calm   1.6 km/h 87% 0 mm 0 W/m2
02:09 6.8 °C 4.8 °C 1007 hPa NNW 0.2 km/h 1.6 km/h 87.3% 0 mm 0 W/m2
02:14 6.7 °C 4.7 °C 1007 hPa Calm   1.6 km/h 87.4% 0 mm 0 W/m2
02:19 6.4 °C 4.6 °C 1007 hPa Calm     87.7% 0 mm 0 W/m2
02:24 6.3 °C 4.6 °C 1007 hPa NNW 0.5 km/h 3.2 km/h 88% 0 mm 0 W/m2
02:29 6.2 °C 4.4 °C 1007 hPa NNW 0.5 km/h 3.2 km/h 88% 0 mm 0 W/m2
02:34 6.1 °C 4.3 °C 1007 hPa NNW 0.5 km/h 3.2 km/h 88% 0 mm 0 W/m2
02:39 5.9 °C 4.2 °C 1007 hPa Calm     88.2% 0 mm 0 W/m2
02:44 5.8 °C 4.2 °C 1007 hPa Calm     89% 0 mm 0 W/m2
02:49 5.7 °C 3.9 °C 1007 hPa Calm     89% 0 mm 0 W/m2
02:54 5.6 °C 3.8 °C 1007 hPa Calm     89% 0 mm 0 W/m2
02:59 5.4 °C 3.7 °C 1007 hPa Calm     89% 0 mm 0 W/m2
03:04 5.4 °C 3.7 °C 1007.3 hPa Calm     89% 0 mm 0 W/m2
03:09 5.3 °C 3.7 °C 1007 hPa NNW 0.2 km/h 1.6 km/h 89.5% 0 mm 0 W/m2
03:14 5.2 °C 3.7 °C 1007 hPa NNW 0.8 km/h 3.2 km/h 90% 0 mm 0 W/m2
03:19 5.1 °C 3.6 °C 1007 hPa NNW 0.8 km/h 3.2 km/h 90% 0 mm 0 W/m2
03:24 4.9 °C 3.4 °C 1007.3 hPa NNW 0.2 km/h 1.6 km/h 90% 0 mm 0 W/m2
03:29 4.8 °C 3.3 °C 1007.3 hPa NNW 0.2 km/h 1.6 km/h 90% 0 mm 0 W/m2
03:34 4.8 °C 3.3 °C 1007.3 hPa NNW 0.8 km/h 3.2 km/h 90% 0 mm 0 W/m2
03:39 4.7 °C 3.3 °C 1007.3 hPa NNW 2.4 km/h 4.8 km/h 90.5% 0 mm 0 W/m2
03:44 4.7 °C 3.4 °C 1007.3 hPa NNW 0.5 km/h 4.8 km/h 91% 0 mm 0 W/m2
03:49 4.6 °C 3.3 °C 1007.3 hPa NNW 2.1 km/h 4.8 km/h 91% 0 mm 0 W/m2
03:54 4.6 °C 3.3 °C 1007.3 hPa NNW 0.3 km/h 3.2 km/h 91% 0 mm 0 W/m2
03:59 4.3 °C 3.1 °C 1007.3 hPa NNW 0.5 km/h 1.6 km/h 91% 0 mm 0 W/m2
04:04 4.3 °C 3 °C 1007.3 hPa NNW 0.2 km/h 1.6 km/h 91% 0 mm 0 W/m2
04:09 4.3 °C 3 °C 1007.3 hPa NNW 2.1 km/h 6.4 km/h 91% 0 mm 0 W/m2
04:14 4.2 °C 2.9 °C 1007.3 hPa NNW 0.6 km/h 6.4 km/h 91% 0 mm 0 W/m2
04:19 4.2 °C 2.9 °C 1007.3 hPa Calm     91% 0 mm 0 W/m2
04:24 4.2 °C 2.9 °C 1007.3 hPa Calm   1.6 km/h 91.3% 0 mm 0 W/m2
04:29 4.2 °C 2.9 °C 1007 hPa NNW 0.8 km/h 3.2 km/h 92% 0 mm 0 W/m2
04:34 4 °C 2.8 °C 1007 hPa Calm   3.2 km/h 91.6% 0 mm 0 W/m2
04:39 3.8 °C 2.7 °C 1007 hPa Calm   1.6 km/h 92% 0 mm 0 W/m2
04:44 3.8 °C 2.6 °C 1007 hPa Calm     92% 0 mm 0 W/m2
04:49 3.7 °C 2.5 °C 1007 hPa Calm     92% 0 mm 0 W/m2
04:54 3.7 °C 2.5 °C 1007 hPa Calm   1.6 km/h 92% 0 mm 0 W/m2
04:59 3.6 °C 2.4 °C 1007 hPa Calm   1.6 km/h 92% 0 mm 0 W/m2
05:04 3.5 °C 2.3 °C 1006.7 hPa NNW 0.2 km/h 1.6 km/h 92% 0 mm 0 W/m2
05:09 3.4 °C 2.2 °C 1006.7 hPa Calm     92% 0 mm 0 W/m2
05:14 3.4 °C 2.2 °C 1006.7 hPa Calm     92% 0 mm 0 W/m2
05:19 3.4 °C 2.2 °C 1006.7 hPa Calm     92% 0 mm 0 W/m2
05:24 3.4 °C 2.2 °C 1006.7 hPa Calm     92% 0 mm 0 W/m2
05:29 3.4 °C 2.2 °C 1006.7 hPa Calm     92% 0 mm 0 W/m2
05:34 3.4 °C 2.2 °C 1006.7 hPa Calm   1.6 km/h 92% 0 mm 0 W/m2
05:39 3.4 °C 2.2 °C 1006.3 hPa Calm     92% 0 mm 0 W/m2
05:44 3.4 °C 2.3 °C 1006.3 hPa Calm     92% 0 mm 0 W/m2
05:49 3.6 °C 2.4 °C 1006.3 hPa Calm     92.2% 0 mm 0 W/m2
05:54 3.6 °C 2.5 °C 1006.3 hPa Calm     92.4% 0 mm 0 W/m2
05:59 3.6 °C 2.4 °C 1006.3 hPa Calm     92.2% 0 mm 0 W/m2
06:04 3.7 °C 2.7 °C 1006.3 hPa Calm     93% 0 mm 0 W/m2
06:09 3.7 °C 2.7 °C 1006.3 hPa Calm     93% 0 mm 0 W/m2
06:14 3.7 °C 2.7 °C 1006.3 hPa Calm     93% 0 mm 0 W/m2
06:19 3.8 °C 2.8 °C 1006.3 hPa Calm     93% 0 mm 0 W/m2
06:24 3.9 °C 2.9 °C 1006.3 hPa Calm   1.6 km/h 93% 0 mm 0 W/m2
06:29 3.9 °C 2.9 °C 1006.3 hPa NNW 0.3 km/h 3.2 km/h 93% 0 mm 0 W/m2
06:34 4 °C 3 °C 1006.3 hPa NNW 0.5 km/h 3.2 km/h 93% 0 mm 0 W/m2
06:39 4.1 °C 3.1 °C 1006.3 hPa Calm     93% 0 mm 0 W/m2
06:44 4.1 °C 3.1 °C 1006.3 hPa Calm   1.6 km/h 93% 0 mm 0 W/m2
06:49 4.2 °C 3.2 °C 1006.3 hPa Calm   1.6 km/h 93% 0 mm 0 W/m2
06:54 4.2 °C 3.2 °C 1006.3 hPa Calm     93% 0 mm 0 W/m2
06:59 4.2 °C 3.2 °C 1006.3 hPa NNW 0.3 km/h 1.6 km/h 93% 0 mm 0 W/m2
07:04 4.2 °C 3.2 °C 1006.3 hPa NNW 0.2 km/h 1.6 km/h 93% 0 mm 0 W/m2
07:09 4.2 °C 3.2 °C 1006.3 hPa NNW 0.3 km/h 3.2 km/h 93% 0 mm 0 W/m2
07:14 4.3 °C 3.3 °C 1006.3 hPa Calm   3.2 km/h 93% 0 mm 5 W/m2
07:19 4.4 °C 3.4 °C 1006.3 hPa Calm     93.1% 0 mm 9 W/m2
07:24 4.4 °C 3.4 °C 1006.3 hPa Calm     93.7% 0 mm 12 W/m2
07:29 4.4 °C 3.5 °C 1006.3 hPa Calm     94% 0 mm 14 W/m2
07:34 4.5 °C 3.6 °C 1006.3 hPa Calm     93.1% 0 mm 19 W/m2
07:39 4.7 °C 3.7 °C 1006.3 hPa Calm     93.2% 0 mm 26 W/m2
07:44 4.7 °C 3.8 °C 1006.3 hPa Calm     94% 0 mm 32 W/m2
07:49 4.8 °C 3.9 °C 1006.3 hPa Calm     94% 0 mm 39 W/m2
07:54 4.8 °C 3.9 °C 1006 hPa Calm     94% 0 mm 46 W/m2
07:59 4.9 °C 4 °C 1006 hPa Calm     94% 0 mm 51 W/m2
08:04 5 °C 4.1 °C 1006 hPa Calm     94% 0 mm 58 W/m2
08:09 5.1 °C 4.2 °C 1006 hPa Calm     94% 0 mm 62 W/m2
08:14 5.2 °C 4.3 °C 1006 hPa Calm     94% 0 mm 62 W/m2
08:19 5.3 °C 4.4 °C 1006 hPa Calm     94% 0 mm 62 W/m2
08:24 5.4 °C 4.6 °C 1006 hPa Calm     94% 0 mm 62 W/m2
08:29 5.7 °C 4.8 °C 1006 hPa Calm     94% 0 mm 60 W/m2
08:34 5.8 °C 4.9 °C 1006 hPa Calm     94% 0 mm 60 W/m2
08:39 5.8 °C 4.9 °C 1006 hPa Calm     94% 0 mm 60 W/m2
08:44 5.8 °C 4.9 °C 1005.6 hPa Calm     94% 0 mm 62 W/m2
08:49 6 °C 5.1 °C 1005.6 hPa Calm     94% 0 mm 67 W/m2
08:54 6.1 °C 5.2 °C 1005.6 hPa Calm     94% 0 mm 79 W/m2
08:59 6.2 °C 5.3 °C 1005.6 hPa Calm     94% 0 mm 91 W/m2
09:04 6.3 °C 5.4 °C 1005.6 hPa Calm     94% 0 mm 98 W/m2
09:09 6.3 °C 5.4 °C 1005.6 hPa Calm     94% 0 mm 98 W/m2
09:14 6.4 °C 5.5 °C 1005.3 hPa Calm     94% 0 mm 109 W/m2
09:19 6.7 °C 5.8 °C 1005.3 hPa Calm     94% 0 mm 146 W/m2
09:24 7.3 °C 6.3 °C 1005.3 hPa Calm     94% 0 mm 162 W/m2
09:29 7.3 °C 6.3 °C 1005.3 hPa Calm     93.9% 0 mm 183 W/m2
09:34 7.2 °C 6.1 °C 1005.3 hPa Calm     93% 0 mm 144 W/m2
09:39 7.4 °C 6.2 °C 1005.3 hPa Calm     92% 0 mm 118 W/m2
09:44 7.6 °C 6.3 °C 1005.3 hPa Calm     91.4% 0 mm 91 W/m2
09:49 7.7 °C 6.3 °C 1005.3 hPa Calm     91% 0 mm 113 W/m2
09:54 7.8 °C 6.4 °C 1005 hPa Calm     90.3% 0 mm 118 W/m2
09:59 7.9 °C 6.4 °C 1005 hPa Calm     90% 0 mm 121 W/m2
10:04 7.9 °C 6.2 °C 1005 hPa Calm     89% 0 mm 146 W/m2
10:09 8.1 °C 6.3 °C 1005 hPa Calm     88.9% 0 mm 162 W/m2
10:14 8.2 °C 6.3 °C 1005 hPa Calm     88.4% 0 mm 178 W/m2
10:19 8.3 °C 6.4 °C 1005 hPa Calm     88% 0 mm 193 W/m2
10:24 8.7 °C 6.7 °C 1005 hPa Calm     87.4% 0 mm 188 W/m2
10:29 8.8 °C 6.6 °C 1005 hPa Calm     86% 0 mm 188 W/m2
10:34 8.8 °C 6.5 °C 1005 hPa NW 0.6 km/h 4.8 km/h 85.3% 0 mm 197 W/m2
10:39 8.9 °C 6.6 °C 1004.6 hPa WNW 1.4 km/h 6.4 km/h 85% 0 mm 193 W/m2
10:44 8.9 °C 6.3 °C 1004.6 hPa SW 4.3 km/h 11.3 km/h 83.7% 0 mm 183 W/m2
10:49 8.9 °C 6.2 °C 1004.6 hPa SSW 3.1 km/h 8 km/h 83% 0 mm 137 W/m2
10:54 9 °C 6.3 °C 1004.6 hPa SSW 3.5 km/h 9.7 km/h 83% 0 mm 100 W/m2
10:59 9.1 °C 6.3 °C 1004.6 hPa SSW 3.2 km/h 9.7 km/h 82.6% 0 mm 118 W/m2
11:04 9.2 °C 6.2 °C 1004.6 hPa SW 5.3 km/h 12.9 km/h 81.8% 0 mm 118 W/m2
11:09 9.2 °C 6 °C 1004.6 hPa SW 4.5 km/h 11.3 km/h 80.4% 0 mm 95 W/m2
11:14 9.3 °C 5.9 °C 1004.3 hPa SW 4.2 km/h 9.7 km/h 79.5% 0 mm 95 W/m2
11:19 9.4 °C 5.9 °C 1004.3 hPa SW 3.7 km/h 8 km/h 79% 0 mm 116 W/m2
11:24 9.5 °C 6 °C 1003.9 hPa SW 3.2 km/h 8 km/h 79% 0 mm 118 W/m2
11:29 9.6 °C 6.1 °C 1003.9 hPa SSW 5 km/h 11.3 km/h 79% 0 mm 116 W/m2
11:34 9.6 °C 6.1 °C 1003.9 hPa SSW 6.1 km/h 11.3 km/h 79% 0 mm 120 W/m2
11:39 9.6 °C 6.3 °C 1003.9 hPa SW 3.7 km/h 9.7 km/h 79.8% 0 mm 113 W/m2
11:44 9.7 °C 6.3 °C 1003.9 hPa SSW 4.8 km/h 11.3 km/h 80% 0 mm 74 W/m2
11:49 9.6 °C 6.4 °C 1003.9 hPa SW 10.1 km/h 16.1 km/h 80.4% 0 mm 53 W/m2
11:54 9.5 °C 6.4 °C 1003.9 hPa SW 6.4 km/h 16.1 km/h 81% 0 mm 63 W/m2
11:59 9.4 °C 6.4 °C 1003.6 hPa SSW 6.1 km/h 11.3 km/h 81.6% 0 mm 63 W/m2
12:04 9.4 °C 6.5 °C 1003.6 hPa SSW 3.2 km/h 9.7 km/h 82% 0 mm 56 W/m2
12:09 9.3 °C 6.6 °C 1003.6 hPa SSW 4.2 km/h 11.3 km/h 82.7% 0 mm 49 W/m2
12:14 9.3 °C 6.6 °C 1003.6 hPa SSW 4.7 km/h 9.7 km/h 83% 0 mm 58 W/m2
12:19 9.3 °C 6.6 °C 1003.3 hPa SSW 3.2 km/h 9.7 km/h 83% 0 mm 67 W/m2
12:24 9.3 °C 6.7 °C 1003.3 hPa SSW 1.1 km/h 4.8 km/h 83.6% 0 mm 76 W/m2
12:29 9.3 °C 6.8 °C 1003.3 hPa SSW 2.9 km/h 9.7 km/h 84% 0 mm 90 W/m2
12:34 9.4 °C 6.9 °C 1003.3 hPa SSW 4.5 km/h 9.7 km/h 84.7% 0 mm 125 W/m2
12:39 9.4 °C 7 °C 1003.3 hPa SSW 4.3 km/h 8 km/h 85% 0.25 mm 135 W/m2
12:44 9.3 °C 6.9 °C 1002.9 hPa SSW 5.3 km/h 11.3 km/h 85% 0.25 mm 127 W/m2
12:49 9.4 °C 7 °C 1002.9 hPa SW 2.9 km/h 8 km/h 85% 0.25 mm 104 W/m2
12:54 9.4 °C 7.2 °C 1002.9 hPa SW 4.5 km/h 9.7 km/h 85.8% 0.25 mm 86 W/m2
12:59 9.4 °C 7.2 °C 1002.9 hPa SW 1.1 km/h 6.4 km/h 86% 0.25 mm 49 W/m2
13:04 9.4 °C 7.2 °C 1002.9 hPa SW 2.7 km/h 8 km/h 86% 0.25 mm 44 W/m2
13:09 9.4 °C 7.2 °C 1002.6 hPa SW 3.1 km/h 8 km/h 86% 0.25 mm 47 W/m2
13:14 9.5 °C 7.3 °C 1002.6 hPa SW 2.3 km/h 8 km/h 86% 0.25 mm 54 W/m2
13:19 9.4 °C 7.2 °C 1002.6 hPa SSW 4.3 km/h 14.5 km/h 86% 0.25 mm 44 W/m2
13:24 9.4 °C 7.3 °C 1002.6 hPa SSW 4.5 km/h 12.9 km/h 86% 0.25 mm 44 W/m2
13:29 9.4 °C 7.2 °C 1002.6 hPa SW 4.5 km/h 12.9 km/h 86% 0.25 mm 76 W/m2
13:34 9.4 °C 7.3 °C 1002.3 hPa SW 3.4 km/h 6.4 km/h 86% 0.25 mm 97 W/m2
13:39 9.6 °C 7.3 °C 1002.3 hPa SW 1.3 km/h 6.4 km/h 86% 0 mm 104 W/m2
13:44 9.6 °C 7.4 °C 1002.3 hPa SW 3.7 km/h 9.7 km/h 86% 0 mm 104 W/m2
13:49 9.7 °C 7.4 °C 1002.3 hPa SW 2.7 km/h 9.7 km/h 86% 0 mm 100 W/m2
13:54 9.7 °C 7.5 °C 1001.9 hPa SW 1.3 km/h 8 km/h 86% 0 mm 107 W/m2
13:59 9.8 °C 7.6 °C 1001.9 hPa SW 2.4 km/h 8 km/h 86% 0 mm 107 W/m2
14:04 9.8 °C 7.6 °C 1001.9 hPa SW 5.6 km/h 11.3 km/h 86% 0 mm 104 W/m2
14:09 9.8 °C 7.7 °C 1001.9 hPa SW 1.1 km/h 9.7 km/h 86% 0 mm 116 W/m2
14:14 9.9 °C 7.7 °C 1001.9 hPa SW 1 km/h 4.8 km/h 86% 0 mm 121 W/m2
14:19 10.1 °C 7.8 °C 1001.6 hPa SW 0.5 km/h 3.2 km/h 86% 0 mm 125 W/m2
14:24 10.1 °C 7.9 °C 1001.6 hPa SW 2.7 km/h 8 km/h 86% 0 mm 118 W/m2
14:29 10.1 °C 7.8 °C 1001.6 hPa SW 3.5 km/h 8 km/h 86% 0 mm 107 W/m2
14:34 9.9 °C 7.8 °C 1001.2 hPa SW 4.2 km/h 9.7 km/h 86% 0 mm 93 W/m2
14:39 9.9 °C 7.7 °C 1001.2 hPa SW 2.7 km/h 11.3 km/h 86% 0 mm 84 W/m2
14:44 9.9 °C 7.7 °C 1001.2 hPa SW 0.6 km/h 6.4 km/h 86% 0 mm 62 W/m2
14:49 9.9 °C 7.7 °C 1001.2 hPa SW 2.7 km/h 8 km/h 86% 0 mm 58 W/m2
14:54 9.9 °C 7.7 °C 1001.2 hPa Calm   6.4 km/h 86% 0 mm 69 W/m2
14:59 9.9 °C 7.8 °C 1000.9 hPa SW 1.9 km/h 8 km/h 86.8% 0 mm 79 W/m2
15:04 9.9 °C 7.8 °C 1000.9 hPa SW 2.9 km/h 9.7 km/h 87% 0 mm 79 W/m2
15:09 9.9 °C 7.8 °C 1000.9 hPa SW 1.6 km/h 9.7 km/h 87% 0 mm 62 W/m2
15:14 10 °C 7.9 °C 1000.9 hPa SW 0.5 km/h 4.8 km/h 87% 0 mm 65 W/m2
15:19 10 °C 7.9 °C 1000.6 hPa SW 3.2 km/h 6.4 km/h 87% 0 mm 65 W/m2
15:24 10 °C 7.9 °C 1000.6 hPa SW 2.1 km/h 6.4 km/h 87% 0 mm 58 W/m2
15:29 10.1 °C 7.9 °C 1000.6 hPa SW 1.3 km/h 6.4 km/h 87% 0 mm 49 W/m2
15:34 10.1 °C 8 °C 1000.6 hPa SW 0.5 km/h 4.8 km/h 87% 0 mm 44 W/m2
15:39 10.1 °C 8 °C 1000.6 hPa SW 2.4 km/h 6.4 km/h 87% 0 mm 35 W/m2
15:44 10.1 °C 7.9 °C 1000.6 hPa SW 2.3 km/h 8 km/h 87% 0 mm 28 W/m2
15:49 10 °C 7.9 °C 1000.2 hPa SW 3.9 km/h 8 km/h 86.8% 0 mm 25 W/m2
15:54 10.1 °C 7.8 °C 1000.2 hPa SW 1.6 km/h 6.4 km/h 86% 0 mm 16 W/m2
15:59 10.1 °C 7.9 °C 1000.2 hPa SW 0.6 km/h 3.2 km/h 86% 0 mm 12 W/m2
16:04 10.1 °C 7.9 °C 1000.2 hPa SW 0.3 km/h 3.2 km/h 86% 0 mm 9 W/m2
16:09 10.1 °C 7.9 °C 1000.2 hPa SW 0.6 km/h 3.2 km/h 86% 0 mm 7 W/m2
16:14 10.1 °C 7.8 °C 1000.2 hPa SW 0.3 km/h 3.2 km/h 86% 0 mm 5 W/m2
16:19 10 °C 7.8 °C 999.9 hPa SW 0.6 km/h 4.8 km/h 86% 0 mm 0 W/m2
16:24 9.9 °C 7.7 °C 999.9 hPa SW 1.6 km/h 6.4 km/h 86% 0 mm 0 W/m2
16:29 9.9 °C 7.8 °C 999.9 hPa SW 2.3 km/h 8 km/h 86.8% 0 mm 0 W/m2
16:34 9.8 °C 7.7 °C 999.5 hPa SSW 3.7 km/h 9.7 km/h 87% 0 mm 0 W/m2
16:39 9.8 °C 7.7 °C 999.5 hPa SSW 3.2 km/h 8 km/h 87% 0 mm 0 W/m2
16:44 9.8 °C 7.7 °C 999.5 hPa SSW 3.2 km/h 6.4 km/h 87% 0 mm 0 W/m2
16:49 9.7 °C 7.7 °C 999.5 hPa SSW 1.1 km/h 6.4 km/h 87% 0 mm 0 W/m2
16:54 9.7 °C 7.6 °C 999.5 hPa SSW 1.4 km/h 4.8 km/h 87% 0 mm 0 W/m2
16:59 9.7 °C 7.6 °C 999.5 hPa SSW 1.8 km/h 6.4 km/h 87% 0 mm 0 W/m2
17:04 9.6 °C 7.6 °C 999.5 hPa SSW 3.5 km/h 8 km/h 87.4% 0 mm 0 W/m2
17:09 9.5 °C 7.6 °C 999.2 hPa SSW 2.1 km/h 8 km/h 87.5% 0 mm 0 W/m2
17:14 9.4 °C 7.5 °C 999.2 hPa SSW 1.8 km/h 8 km/h 88% 0 mm 0 W/m2
17:19 9.4 °C 7.5 °C 999.2 hPa SSW 2.9 km/h 9.7 km/h 88% 0 mm 0 W/m2
17:24 9.3 °C 7.4 °C 998.9 hPa SSW 1.4 km/h 9.7 km/h 88% 0 mm 0 W/m2
17:29 9.3 °C 7.4 °C 998.9 hPa SSW 2.6 km/h 8 km/h 88% 0 mm 0 W/m2
17:34 9.2 °C 7.3 °C 998.9 hPa SSW 1.8 km/h 6.4 km/h 88% 0 mm 0 W/m2
17:39 9.2 °C 7.3 °C 998.9 hPa SSW 0.3 km/h 3.2 km/h 88% 0 mm 0 W/m2
17:44 9.2 °C 7.3 °C 998.9 hPa SSW 0.8 km/h 4.8 km/h 88% 0 mm 0 W/m2
17:49 9.2 °C 7.2 °C 998.9 hPa SSW 1.1 km/h 6.4 km/h 88% 0 mm 0 W/m2
17:54 9.1 °C 7.2 °C 998.5 hPa SSW 0.5 km/h 4.8 km/h 88% 0 mm 0 W/m2
17:59 9.1 °C 7.2 °C 998.5 hPa SSW 0.8 km/h 4.8 km/h 88% 0 mm 0 W/m2
18:04 9.1 °C 7.2 °C 998.5 hPa SSW 0.2 km/h 3.2 km/h 88% 0 mm 0 W/m2
18:09 8.9 °C 7.1 °C 998.5 hPa SSW 1.4 km/h 6.4 km/h 88% 0 mm 0 W/m2
18:14 8.9 °C 7.2 °C 998.5 hPa SSW 0.6 km/h 4.8 km/h 88.7% 0 mm 0 W/m2
18:19 8.9 °C 7.1 °C 998.5 hPa Calm   1.6 km/h 88.5% 0 mm 0 W/m2
18:24 8.9 °C 7.1 °C 998.2 hPa Calm   1.6 km/h 88.4% 0 mm 0 W/m2
18:29 8.8 °C 7.1 °C 998.2 hPa SSW 1.1 km/h 4.8 km/h 89% 0 mm 0 W/m2
18:34 8.8 °C 7.1 °C 997.9 hPa SSW 0.8 km/h 3.2 km/h 89% 0 mm 0 W/m2
18:39 8.8 °C 7.1 °C 997.9 hPa SSW 0.5 km/h 3.2 km/h 89% 0 mm 0 W/m2
18:44 8.7 °C 7 °C 997.9 hPa SSW 0.6 km/h 3.2 km/h 89% 0 mm 0 W/m2
18:49 8.7 °C 6.9 °C 997.9 hPa SSW 1.1 km/h 4.8 km/h 89% 0 mm 0 W/m2
18:54 8.6 °C 6.9 °C 997.5 hPa SSW 3.4 km/h 8 km/h 89% 0 mm 0 W/m2
18:59 8.5 °C 6.8 °C 997.5 hPa SSW 2.9 km/h 9.7 km/h 89% 0 mm 0 W/m2
19:04 8.4 °C 6.7 °C 997.5 hPa SSW 3.4 km/h 9.7 km/h 89% 0 mm 0 W/m2
19:09 8.4 °C 6.7 °C 997.2 hPa SSW 2.4 km/h 9.7 km/h 89% 0 mm 0 W/m2
19:14 8.3 °C 6.6 °C 997.2 hPa SSW 3.7 km/h 9.7 km/h 89% 0 mm 0 W/m2
19:19 8.3 °C 6.6 °C 997.2 hPa South 4 km/h 9.7 km/h 89% 0 mm 0 W/m2
19:24 8.2 °C 6.5 °C 997.2 hPa SSE 5.6 km/h 12.9 km/h 89% 0 mm 0 W/m2
19:29 8.2 °C 6.5 °C 996.8 hPa SE 5.3 km/h 9.7 km/h 89% 0 mm 0 W/m2
19:34 8.2 °C 6.4 °C 996.8 hPa SE 4.5 km/h 11.3 km/h 89% 0 mm 0 W/m2
19:39 8.1 °C 6.4 °C 996.8 hPa SE 3.1 km/h 9.7 km/h 89% 0 mm 0 W/m2
19:44 8.1 °C 6.4 °C 996.8 hPa SE 1.3 km/h 6.4 km/h 89% 0 mm 0 W/m2
19:49 8.1 °C 6.6 °C 996.8 hPa SE 1.9 km/h 8 km/h 89.9% 0 mm 0 W/m2
19:54 8.1 °C 6.6 °C 996.8 hPa SE 2.4 km/h 8 km/h 90% 0 mm 0 W/m2
19:59 8.1 °C 6.6 °C 996.8 hPa SE 0.3 km/h 4.8 km/h 90% 0 mm 0 W/m2
20:04 8.1 °C 6.6 °C 996.8 hPa SE 1.1 km/h 4.8 km/h 90% 0 mm 0 W/m2
20:09 8.1 °C 6.6 °C 996.8 hPa SE 0.2 km/h 4.8 km/h 90% 0 mm 0 W/m2
20:14 8.1 °C 6.6 °C 996.8 hPa Calm   1.6 km/h 90% 0 mm 0 W/m2
20:19 8.1 °C 6.6 °C 996.5 hPa Calm     90% 0 mm 0 W/m2
20:24 8.1 °C 6.6 °C 996.5 hPa SE 0.3 km/h 3.2 km/h 90% 0.25 mm 0 W/m2
20:29 8.2 °C 6.7 °C 996.5 hPa SE 0.2 km/h 1.6 km/h 90% 0.51 mm 0 W/m2
20:34 8.2 °C 6.7 °C 996.5 hPa SE 1.4 km/h 4.8 km/h 90% 0.51 mm 0 W/m2
20:39 8.2 °C 6.8 °C 996.2 hPa SE 0.5 km/h 4.8 km/h 90.9% 1.27 mm 0 W/m2
20:44 8.2 °C 6.8 °C 996.2 hPa SE 0.6 km/h 3.2 km/h 91% 1.52 mm 0 W/m2
20:49 8.2 °C 6.7 °C 996.2 hPa SE 0.2 km/h 1.6 km/h 91% 1.78 mm 0 W/m2
20:54 8.1 °C 6.7 °C 995.8 hPa SE 2.6 km/h 8 km/h 91% 2.29 mm 0 W/m2
20:59 8.1 °C 6.7 °C 995.8 hPa SE 4.5 km/h 6.4 km/h 91% 2.79 mm 0 W/m2
21:04 8.1 °C 6.7 °C 995.8 hPa SE 4.7 km/h 9.7 km/h 91% 3.3 mm 0 W/m2
21:09 8.1 °C 6.7 °C 995.5 hPa SE 3.2 km/h 9.7 km/h 91% 3.3 mm 0 W/m2
21:14 8.1 °C 6.9 °C 995.5 hPa SE 2.9 km/h 9.7 km/h 91.9% 3.81 mm 0 W/m2
21:19 8.1 °C 6.9 °C 995.1 hPa SE 4.3 km/h 9.7 km/h 92% 4.06 mm 0 W/m2
21:24 8.1 °C 6.8 °C 995.1 hPa SE 2.9 km/h 8 km/h 92% 4.32 mm 0 W/m2
21:29 8 °C 6.8 °C 995.1 hPa SE 5.5 km/h 11.3 km/h 92% 4.32 mm 0 W/m2
21:34 8.1 °C 6.9 °C 995.1 hPa ESE 4.8 km/h 9.7 km/h 92% 4.06 mm 0 W/m2
21:39 8.1 °C 6.9 °C 995.1 hPa ESE 4.2 km/h 8 km/h 92% 3.81 mm 0 W/m2
21:44 8.1 °C 6.9 °C 995.1 hPa ESE 1.9 km/h 6.4 km/h 92% 3.56 mm 0 W/m2
21:49 8.1 °C 6.8 °C 995.1 hPa ESE 5 km/h 9.7 km/h 92% 3.56 mm 0 W/m2
21:54 8.1 °C 6.9 °C 994.8 hPa ESE 5.3 km/h 9.7 km/h 93% 3.81 mm 0 W/m2
21:59 8.1 °C 6.9 °C 994.8 hPa ESE 6.4 km/h 9.7 km/h 93% 3.81 mm 0 W/m2
22:04 7.9 °C 6.8 °C 994.5 hPa ESE 7.1 km/h 12.9 km/h 93% 3.56 mm 0 W/m2
22:09 7.9 °C 6.8 °C 994.1 hPa ESE 5.6 km/h 12.9 km/h 93% 3.56 mm 0 W/m2
22:14 7.9 °C 6.8 °C 994.1 hPa ESE 6.1 km/h 12.9 km/h 93% 3.3 mm 0 W/m2
22:19 8 °C 6.9 °C 994.1 hPa ESE 4.2 km/h 8 km/h 93% 3.3 mm 0 W/m2
22:24 7.9 °C 6.8 °C 994.1 hPa ESE 3.9 km/h 11.3 km/h 93% 3.3 mm 0 W/m2
22:29 7.9 °C 6.8 °C 994.1 hPa ESE 4.3 km/h 12.9 km/h 93% 3.3 mm 0 W/m2
22:34 7.9 °C 6.8 °C 994.1 hPa ESE 9.3 km/h 19.3 km/h 93% 3.56 mm 0 W/m2
22:39 7.8 °C 6.8 °C 993.8 hPa SE 8.2 km/h 19.3 km/h 93.7% 4.32 mm 0 W/m2
22:44 7.7 °C 6.8 °C 993.8 hPa SE 7.7 km/h 16.1 km/h 94% 4.32 mm 0 W/m2
22:49 7.7 °C 6.7 °C 993.5 hPa SE 7.2 km/h 14.5 km/h 93.8% 4.57 mm 0 W/m2
22:54 7.7 °C 6.8 °C 993.5 hPa ESE 8.7 km/h 16.1 km/h 94% 4.57 mm 0 W/m2
22:59 7.7 °C 6.8 °C 993.5 hPa ESE 7.1 km/h 16.1 km/h 94% 4.32 mm 0 W/m2
23:04 7.7 °C 6.7 °C 993.1 hPa ESE 6.3 km/h 11.3 km/h 94% 4.06 mm 0 W/m2
23:09 7.6 °C 6.7 °C 993.1 hPa ESE 6.3 km/h 12.9 km/h 94% 3.81 mm 0 W/m2
23:14 7.6 °C 6.7 °C 993.1 hPa ESE 6 km/h 14.5 km/h 94% 3.56 mm 0 W/m2
23:19 7.6 °C 6.7 °C 993.1 hPa ESE 1.8 km/h 8 km/h 94% 3.3 mm 0 W/m2
23:24 7.6 °C 6.7 °C 993.1 hPa ESE 1.1 km/h 4.8 km/h 94% 3.3 mm 0 W/m2
23:29 7.6 °C 6.7 °C 993.1 hPa ESE 2.1 km/h 6.4 km/h 94% 3.3 mm 0 W/m2
23:34 7.6 °C 6.7 °C 992.8 hPa ESE 0.5 km/h 4.8 km/h 94% 2.79 mm 0 W/m2
23:39 7.6 °C 6.7 °C 992.8 hPa ESE 2.4 km/h 8 km/h 94% 2.29 mm 0 W/m2
23:44 7.6 °C 6.7 °C 992.8 hPa ESE 2.1 km/h 8 km/h 94% 1.52 mm 0 W/m2
23:49 7.6 °C 6.7 °C 992.8 hPa ESE 1.8 km/h 6.4 km/h 94% 1.02 mm 0 W/m2
23:54 7.6 °C 6.7 °C 992.8 hPa ESE 0.3 km/h 6.4 km/h 94% 0.51 mm 0 W/m2
23:59 7.6 °C 6.7 °C 992.8 hPa ESE 0.3 km/h 3.2 km/h 94% 0.25 mm 0 W/m2
Bath Spa Weather
Compliments of Weather Underground - 2 mb